Time;durP1;ratioP1;P1;durP2;ratioP2;P2;SDS_P1;SDS_P2;PMS_P1;PMS_P2;Temp;Humidity;BMP_temperature;BMP_pressure;BME280_temperature;BME280_humidity;BME280_pressure;Samples;Min_cycle;Max_cycle;Signal;HPM_P1;HPM_P2
2021/09/30 00:00:46;;;;;;;13.38;8.25;;;;;;;12.31;100.00;95458.41;10216102;28;20039;-74
2021/09/30 00:05:47;;;;;;;11.30;6.93;;;;;;;12.31;100.00;95457.63;10206481;28;20505;-68
2021/09/30 00:10:58;;;;;;;12.77;7.43;;;;;;;12.30;100.00;95459.47;10215209;29;20035;-74
2021/09/30 00:52:51;;;;;;;10.88;6.53;;;;;;;12.20;100.00;95437.09;10198758;29;20032;-71
2021/09/30 01:20:27;;;;;;;12.32;6.05;;;;;;;12.11;100.00;95445.72;10198771;29;20055;-67
2021/09/30 03:01:30;;;;;;;15.90;8.32;;;;;;;11.78;100.00;95458.47;10203765;29;20031;-69
2021/09/30 03:06:30;;;;;;;12.52;7.88;;;;;;;11.77;100.00;95473.00;10217760;29;20032;-71
2021/09/30 03:11:38;;;;;;;13.40;8.63;;;;;;;11.75;100.00;95463.59;10217856;28;20302;-72
2021/09/30 03:16:47;;;;;;;11.33;8.67;;;;;;;11.72;100.00;95464.91;10202709;29;20020;-75
2021/09/30 03:27:09;;;;;;;15.80;9.20;;;;;;;11.68;100.00;95474.59;10202839;29;20059;-72
2021/09/30 03:32:10;;;;;;;19.08;11.27;;;;;;;11.66;100.00;95476.72;10216876;28;20082;-70
2021/09/30 03:37:11;;;;;;;12.95;10.20;;;;;;;11.68;100.00;95468.38;10201230;29;20047;-72
2021/09/30 03:42:11;;;;;;;17.05;11.23;;;;;;;11.65;100.00;95475.09;10201690;29;20765;-71
2021/09/30 03:47:13;;;;;;;16.17;10.93;;;;;;;11.72;100.00;95473.00;10199789;29;20042;-67
2021/09/30 03:57:51;;;;;;;16.42;10.65;;;;;;;11.65;100.00;95477.00;10209193;29;20031;-69
2021/09/30 04:02:51;;;;;;;21.20;11.63;;;;;;;11.63;100.00;95467.28;10201259;29;20032;-76
2021/09/30 04:07:52;;;;;;;20.03;11.37;;;;;;;11.61;100.00;95471.34;10217301;29;20496;-71
2021/09/30 04:12:52;;;;;;;20.85;12.10;;;;;;;11.68;100.00;95474.59;10214473;29;20449;-72
2021/09/30 04:17:53;;;;;;;17.08;12.50;;;;;;;11.69;100.00;95480.78;10198304;29;20052;-72
2021/09/30 04:22:53;;;;;;;21.95;13.30;;;;;;;11.72;100.00;95481.06;10199252;29;20357;-70
2021/09/30 04:27:54;;;;;;;22.20;13.98;;;;;;;11.67;100.00;95489.13;10195451;29;20031;-69
2021/09/30 04:32:54;;;;;;;23.98;13.18;;;;;;;11.62;100.00;95481.00;10210934;29;20035;-71
2021/09/30 04:37:55;;;;;;;28.67;15.77;;;;;;;11.69;100.00;95475.41;10197699;29;20022;-68
2021/09/30 04:42:55;;;;;;;29.00;16.70;;;;;;;11.71;100.00;95479.44;10212883;29;20045;-69
2021/09/30 04:47:55;;;;;;;21.63;13.77;;;;;;;11.76;100.00;95481.34;10180473;29;20793;-73
2021/09/30 04:53:00;;;;;;;23.58;14.45;;;;;;;11.65;100.00;95491.25;10181064;29;20276;-69
2021/09/30 04:58:00;;;;;;;32.58;15.68;;;;;;;11.71;100.00;95484.84;10187716;29;20092;-69
2021/09/30 05:03:01;;;;;;;27.67;14.67;;;;;;;11.77;100.00;95499.94;10212815;29;20027;-69
2021/09/30 05:08:01;;;;;;;27.60;16.53;;;;;;;11.80;100.00;95487.84;10189970;29;20883;-70
2021/09/30 05:13:07;;;;;;;29.27;16.67;;;;;;;11.75;100.00;95496.72;10172699;29;20300;-69
2021/09/30 05:18:08;;;;;;;27.73;14.77;;;;;;;11.66;100.00;95508.22;10172587;29;20417;-69
2021/09/30 05:23:08;;;;;;;23.00;14.25;;;;;;;11.68;100.00;95514.97;10173307;29;20126;-72
2021/09/30 05:28:09;;;;;;;32.13;15.48;;;;;;;11.72;100.00;95513.41;10172223;29;20541;-71
2021/09/30 05:33:09;;;;;;;23.17;14.07;;;;;;;11.75;100.00;95514.75;10173271;29;20059;-72
2021/09/30 05:38:10;;;;;;;24.83;14.48;;;;;;;11.91;100.00;95515.63;10176514;29;20263;-75
2021/09/30 05:43:17;;;;;;;23.10;14.15;;;;;;;12.17;100.00;95515.75;10212303;29;20449;-73
2021/09/30 05:48:18;;;;;;;28.45;17.45;;;;;;;12.24;100.00;95524.44;10159711;29;20035;-67
2021/09/30 05:53:20;;;;;;;27.80;14.55;;;;;;;12.15;100.00;95526.81;10196741;29;20043;-75
2021/09/30 05:58:20;;;;;;;20.35;12.70;;;;;;;12.23;100.00;95528.19;10196186;29;20024;-70
2021/09/30 06:14:13;;;;;;;24.52;14.15;;;;;;;12.46;100.00;95535.00;10196689;29;20035;-73
2021/09/30 06:19:19;;;;;;;20.30;14.00;;;;;;;12.62;100.00;95535.88;10197506;29;20242;-72
2021/09/30 06:24:22;;;;;;;19.35;10.88;;;;;;;12.85;100.00;95541.84;10221798;29;20039;-70
2021/09/30 06:29:22;;;;;;;14.60;10.75;;;;;;;13.04;100.00;95540.25;10185946;29;20382;-70
2021/09/30 06:34:23;;;;;;;18.38;9.63;;;;;;;13.23;100.00;95539.69;10198559;29;20030;-68
2021/09/30 06:39:23;;;;;;;24.92;11.95;;;;;;;13.09;100.00;95542.94;10172327;29;20489;-71
2021/09/30 06:44:24;;;;;;;17.25;11.15;;;;;;;13.03;100.00;95544.00;10163037;29;20487;-73
2021/09/30 06:49:24;;;;;;;16.17;11.18;;;;;;;13.03;100.00;95541.31;10194073;29;20423;-73
2021/09/30 06:54:26;;;;;;;19.60;12.57;;;;;;;13.28;100.00;95553.22;10203391;29;20066;-70
2021/09/30 06:59:33;;;;;;;18.52;13.02;;;;;;;13.29;100.00;95550.22;10211910;29;20271;-72
2021/09/30 07:04:35;;;;;;;20.73;13.25;;;;;;;13.40;100.00;95556.47;10201956;29;20470;-74
2021/09/30 07:09:35;;;;;;;22.15;13.48;;;;;;;13.48;100.00;95553.25;10203226;29;20094;-73
2021/09/30 07:14:36;;;;;;;21.27;14.55;;;;;;;13.51;100.00;95551.91;10201628;29;20026;-72
2021/09/30 07:19:37;;;;;;;20.23;12.83;;;;;;;13.88;100.00;95556.16;10201462;29;20048;-73
2021/09/30 07:24:38;;;;;;;16.38;10.30;;;;;;;14.18;100.00;95555.25;10202088;29;20299;-73
2021/09/30 07:29:38;;;;;;;10.80;7.55;;;;;;;14.32;100.00;95560.09;10201599;29;20032;-69
2021/09/30 07:34:39;;;;;;;11.70;8.05;;;;;;;14.33;100.00;95564.38;10201793;29;20055;-73
2021/09/30 07:39:40;;;;;;;14.18;6.60;;;;;;;14.40;100.00;95561.41;10184474;29;20039;-72
2021/09/30 07:44:40;;;;;;;10.50;7.47;;;;;;;14.98;100.00;95552.75;10200487;29;20031;-70
2021/09/30 07:49:40;;;;;;;13.05;6.82;;;;;;;15.39;100.00;95555.13;10201152;28;20411;-72
2021/09/30 07:54:41;;;;;;;14.82;6.97;;;;;;;15.83;100.00;95550.72;10199535;28;20038;-71
2021/09/30 07:59:42;;;;;;;10.90;6.20;;;;;;;15.33;100.00;95550.84;10195516;29;20497;-69
2021/09/30 08:04:42;;;;;;;11.27;6.87;;;;;;;14.84;100.00;95555.25;10190726;29;20123;-67
2021/09/30 08:09:43;;;;;;;18.30;9.90;;;;;;;14.25;100.00;95560.38;10201759;28;20279;-67
2021/09/30 08:14:43;;;;;;;20.60;8.73;;;;;;;14.53;100.00;95566.22;10199382;29;20283;-68
2021/09/30 08:19:44;;;;;;;15.10;9.23;;;;;;;14.37;100.00;95551.94;10200252;28;20048;-73
2021/09/30 08:24:45;;;;;;;18.77;10.85;;;;;;;14.41;100.00;95552.19;10199716;29;20434;-75
2021/09/30 08:29:45;;;;;;;17.80;9.90;;;;;;;14.21;100.00;95559.31;10198350;29;20197;-74
2021/09/30 08:34:46;;;;;;;17.43;9.97;;;;;;;14.89;100.00;95552.53;10214156;28;20019;-69
2021/09/30 08:39:46;;;;;;;18.50;10.07;;;;;;;15.40;100.00;95547.84;10213874;29;20387;-70
2021/09/30 08:44:48;;;;;;;18.13;10.32;;;;;;;15.64;100.00;95562.25;10213909;29;20490;-73
2021/09/30 08:49:48;;;;;;;18.05;9.02;;;;;;;15.45;100.00;95561.34;10197622;29;20028;-74
2021/09/30 08:54:49;;;;;;;21.48;9.50;;;;;;;15.49;100.00;95549.66;10199018;29;20462;-73
2021/09/30 09:00:08;;;;;;;15.38;7.72;;;;;;;15.38;100.00;95553.53;10198324;29;20557;-68
2021/09/30 09:05:08;;;;;;;19.33;8.32;;;;;;;15.40;100.00;95554.06;10181822;29;20106;-72
2021/09/30 09:10:09;;;;;;;9.57;6.50;;;;;;;15.11;100.00;95559.41;10197355;29;20032;-67
2021/09/30 09:15:11;;;;;;;20.45;8.27;;;;;;;15.31;100.00;95553.06;10213219;29;20123;-68
2021/09/30 09:20:11;;;;;;;12.00;7.47;;;;;;;15.72;100.00;95547.28;10196897;29;20605;-72
2021/09/30 09:25:14;;;;;;;11.60;7.18;;;;;;;16.10;100.00;95547.44;10212127;29;20054;-73
2021/09/30 09:30:36;;;;;;;10.57;6.53;;;;;;;15.92;100.00;95548.19;10194096;29;20509;-72
2021/09/30 09:36:09;;;;;;;8.80;6.28;;;;;;;16.44;98.51;95551.94;10195874;29;20032;-70
2021/09/30 09:41:19;;;;;;;16.95;7.47;;;;;;;16.90;94.88;95542.44;10183893;29;20531;-75
2021/09/30 09:46:22;;;;;;;8.75;6.40;;;;;;;17.03;91.87;95540.88;10181683;29;20103;-71
2021/09/30 09:51:22;;;;;;;17.33;6.45;;;;;;;16.89;93.26;95540.81;10195513;29;20091;-71
2021/09/30 09:56:23;;;;;;;17.23;6.57;;;;;;;16.88;90.69;95544.59;10197183;29;20422;-73
2021/09/30 10:01:37;;;;;;;10.07;5.93;;;;;;;16.35;96.81;95549.09;10199833;29;20068;-73
2021/09/30 10:06:40;;;;;;;11.13;7.10;;;;;;;16.45;98.71;95536.47;10193331;29;20023;-67
2021/09/30 10:11:40;;;;;;;6.90;5.45;;;;;;;16.30;97.67;95548.31;10180382;29;20031;-68
2021/09/30 10:16:47;;;;;;;9.35;5.50;;;;;;;16.40;94.64;95529.22;10202517;28;20466;-72
2021/09/30 10:21:47;;;;;;;11.77;4.80;;;;;;;16.34;93.93;95530.34;10201916;29;20062;-68
2021/09/30 10:26:52;;;;;;;6.53;4.97;;;;;;;16.29;98.11;95525.00;10202995;29;20433;-73
2021/09/30 10:31:56;;;;;;;10.27;4.38;;;;;;;16.33;96.71;95534.19;10202940;29;20042;-68
2021/09/30 10:37:15;;;;;;;5.63;4.03;;;;;;;16.11;98.55;95532.78;10202773;29;20024;-68
2021/09/30 10:42:42;;;;;;;7.55;5.07;;;;;;;15.95;99.53;95534.06;10218380;28;20039;-73
2021/09/30 10:47:43;;;;;;;6.93;4.75;;;;;;;16.05;97.59;95531.25;10204211;29;20529;-74
2021/09/30 10:52:53;;;;;;;7.22;4.88;;;;;;;16.01;96.63;95532.91;10193387;29;20035;-68
2021/09/30 10:57:59;;;;;;;8.32;4.07;;;;;;;15.67;96.95;95533.75;10220690;29;20035;-69
2021/09/30 11:02:59;;;;;;;8.50;4.65;;;;;;;15.64;98.72;95542.47;10201055;29;20521;-71
2021/09/30 11:08:28;;;;;;;8.97;3.97;;;;;;;15.64;98.70;95526.22;10217455;28;20127;-69
2021/09/30 11:13:31;;;;;;;;;;;;;;;15.71;94.32;95534.81;10203186;29;20039;-69
2021/09/30 11:18:54;;;;;;;4.68;3.85;;;;;;;15.61;95.05;95534.91;10199359;29;20089;-71
2021/09/30 11:23:57;;;;;;;6.18;3.85;;;;;;;15.52;95.32;95543.66;10215877;28;20042;-69
2021/09/30 11:29:19;;;;;;;6.80;4.07;;;;;;;15.62;95.47;95537.34;10202871;29;20114;-71
2021/09/30 11:34:27;;;;;;;7.68;4.00;;;;;;;15.83;94.01;95532.56;10195488;29;20038;-72
2021/09/30 11:39:34;;;;;;;5.00;3.77;;;;;;;16.06;87.13;95527.44;10216237;28;20031;-70
2021/09/30 11:44:35;;;;;;;10.00;3.87;;;;;;;16.21;88.22;95527.28;10216792;28;20303;-74
2021/09/30 11:49:42;;;;;;;8.77;4.75;;;;;;;16.19;100.00;95528.66;10200716;29;20599;-68
2021/09/30 11:54:42;;;;;;;10.60;4.60;;;;;;;16.01;100.00;95530.22;10199628;29;20028;-68
2021/09/30 11:59:42;;;;;;;13.13;5.30;;;;;;;15.90;100.00;95526.78;10215465;29;20387;-71
2021/09/30 12:09:49;;;;;;;385.20;133.38;;;;;;;15.82;100.00;95525.53;10200449;29;20451;-69
2021/09/30 12:14:51;;;;;;;101.22;35.38;;;;;;;15.83;100.00;95527.13;10198900;29;20030;-66
2021/09/30 12:19:54;;;;;;;84.85;22.60;;;;;;;15.94;100.00;95516.19;10199132;29;20059;-75
2021/09/30 12:24:58;;;;;;;210.88;82.38;;;;;;;15.97;100.00;95521.03;10214490;29;20122;-72
2021/09/30 12:30:13;;;;;;;9.15;6.30;;;;;;;15.99;100.00;95526.97;10214591;29;20074;-72
2021/09/30 12:35:28;;;;;;;9.68;6.22;;;;;;;15.62;100.00;95523.78;10199583;29;20038;-73
2021/09/30 12:40:46;;;;;;;12.98;6.82;;;;;;;15.54;100.00;95518.97;10198361;29;20184;-71
2021/09/30 12:45:47;;;;;;;14.43;6.30;;;;;;;15.53;100.00;95520.06;10213972;29;20024;-74
2021/09/30 12:51:12;;;;;;;10.57;6.28;;;;;;;15.47;100.00;95519.31;10213391;29;20042;-70
2021/09/30 12:56:16;;;;;;;11.27;7.00;;;;;;;15.27;100.00;95525.72;10198882;29;20039;-74
2021/09/30 13:01:22;;;;;;;12.65;7.38;;;;;;;15.29;100.00;95517.31;10198645;28;20035;-69
2021/09/30 13:06:23;;;;;;;8.32;6.15;;;;;;;15.21;100.00;95521.44;10213315;28;20027;-66
2021/09/30 13:11:30;;;;;;;12.20;7.10;;;;;;;15.13;100.00;95516.63;10198451;29;20035;-74
2021/09/30 13:16:31;;;;;;;9.30;6.20;;;;;;;15.09;100.00;95523.72;10182375;29;20046;-75
2021/09/30 13:22:01;;;;;;;14.20;6.83;;;;;;;14.95;100.00;95521.63;10194624;29;20051;-74
2021/09/30 13:27:04;;;;;;;10.98;4.80;;;;;;;14.83;100.00;95507.63;10157606;29;20391;-71
2021/09/30 13:32:06;;;;;;;6.72;4.57;;;;;;;14.79;100.00;95507.41;10156983;29;20034;-71
2021/09/30 13:37:07;;;;;;;10.00;5.38;;;;;;;15.01;100.00;95508.84;10162684;29;20035;-68
2021/09/30 13:42:08;;;;;;;8.40;4.55;;;;;;;14.80;100.00;95516.31;10196277;28;20034;-68
2021/09/30 13:47:08;;;;;;;13.85;4.75;;;;;;;14.64;100.00;95507.50;10166457;29;20024;-71
2021/09/30 13:52:09;;;;;;;8.68;4.70;;;;;;;14.68;100.00;95506.66;10205712;29;20032;-70
2021/09/30 13:57:10;;;;;;;10.93;4.75;;;;;;;14.56;100.00;95495.31;10188860;29;20028;-71
2021/09/30 14:02:10;;;;;;;8.45;4.72;;;;;;;14.44;100.00;95495.69;10216830;28;20023;-71
2021/09/30 14:07:11;;;;;;;9.53;5.03;;;;;;;14.51;100.00;95496.16;10205307;29;20035;-72
2021/09/30 14:12:11;;;;;;;11.80;4.95;;;;;;;14.59;100.00;95499.38;10187180;29;20436;-67
2021/09/30 14:17:12;;;;;;;8.65;4.93;;;;;;;14.82;100.00;95500.63;10204674;29;20043;-72
2021/09/30 14:22:12;;;;;;;10.10;5.05;;;;;;;14.76;100.00;95499.03;10196155;28;20078;-68
2021/09/30 14:27:13;;;;;;;8.20;5.30;;;;;;;14.74;100.00;95502.00;10204598;28;20038;-67
2021/09/30 14:32:14;;;;;;;11.15;6.07;;;;;;;14.68;100.00;95506.66;10216173;29;20279;-71
2021/09/30 14:37:14;;;;;;;16.33;5.88;;;;;;;14.67;100.00;95502.31;10204319;29;20032;-71
2021/09/30 14:42:15;;;;;;;8.98;5.00;;;;;;;14.72;100.00;95501.50;10217676;28;20126;-71
2021/09/30 14:47:16;;;;;;;13.90;5.40;;;;;;;14.73;100.00;95494.19;10203071;29;20032;-71
2021/09/30 14:52:17;;;;;;;10.83;6.27;;;;;;;14.63;100.00;95495.06;10201224;29;20114;-66
2021/09/30 14:57:18;;;;;;;11.75;5.68;;;;;;;14.45;100.00;95502.69;10190803;29;20276;-68
2021/09/30 15:02:18;;;;;;;17.98;5.70;;;;;;;14.41;100.00;95501.63;10182192;29;20467;-71
2021/09/30 15:07:23;;;;;;;9.17;5.83;;;;;;;14.37;100.00;95500.56;10200141;29;20024;-69
2021/09/30 15:12:23;;;;;;;9.38;6.50;;;;;;;14.30;100.00;95500.06;10207787;29;20338;-74
2021/09/30 15:17:34;;;;;;;31.02;7.68;;;;;;;14.33;100.00;95504.91;10200962;29;20031;-69
2021/09/30 15:22:35;;;;;;;13.90;6.80;;;;;;;14.11;100.00;95495.28;10201328;29;20051;-71
2021/09/30 15:27:36;;;;;;;7.90;5.82;;;;;;;13.91;100.00;95508.84;10185813;29;20055;-73
2021/09/30 15:32:37;;;;;;;9.45;6.30;;;;;;;13.81;100.00;95509.69;10176735;29;20095;-67
2021/09/30 15:37:37;;;;;;;15.47;7.07;;;;;;;13.93;100.00;95510.19;10162477;29;20470;-72
2021/09/30 15:42:37;;;;;;;14.80;6.57;;;;;;;13.92;100.00;95515.88;10176840;29;20299;-70
2021/09/30 15:47:38;;;;;;;9.97;6.70;;;;;;;13.93;100.00;95510.19;10199508;29;20325;-75
2021/09/30 15:52:39;;;;;;;13.20;6.95;;;;;;;13.92;100.00;95527.50;10199309;29;20283;-68
2021/09/30 15:57:39;;;;;;;10.82;7.05;;;;;;;13.73;100.00;95526.47;10199855;29;20079;-69
2021/09/30 16:02:40;;;;;;;16.67;7.07;;;;;;;13.83;100.00;95523.75;10202378;29;20074;-71
2021/09/30 16:07:40;;;;;;;18.02;6.80;;;;;;;13.76;100.00;95526.72;10214543;28;20042;-67
2021/09/30 16:12:41;;;;;;;13.00;5.87;;;;;;;13.64;100.00;95529.72;10193810;29;20031;-68
2021/09/30 16:17:42;;;;;;;12.05;6.80;;;;;;;13.52;100.00;95534.59;10199550;29;20287;-72
2021/09/30 16:22:43;;;;;;;11.13;6.68;;;;;;;13.49;100.00;95535.97;10198866;29;20063;-72
2021/09/30 16:27:43;;;;;;;12.85;8.15;;;;;;;13.54;100.00;95539.75;10214265;28;20736;-72
2021/09/30 16:32:44;;;;;;;9.47;6.73;;;;;;;13.56;100.00;95534.88;10198579;29;20027;-70
2021/09/30 16:37:45;;;;;;;14.70;7.13;;;;;;;13.56;100.00;95542.97;10195993;29;20279;-68
2021/09/30 16:42:45;;;;;;;12.60;7.15;;;;;;;13.57;100.00;95539.19;10210936;29;20035;-69
2021/09/30 16:47:45;;;;;;;16.17;6.68;;;;;;;13.39;100.00;95545.97;10197545;29;20028;-69
2021/09/30 16:52:47;;;;;;;15.73;7.37;;;;;;;13.41;100.00;95544.59;10199332;29;20030;-71
2021/09/30 16:57:48;;;;;;;12.65;6.43;;;;;;;13.41;100.00;95562.69;10167503;29;20276;-70
2021/09/30 17:02:49;;;;;;;13.77;7.63;;;;;;;13.30;100.00;95551.88;10187122;29;20038;-69
2021/09/30 17:07:50;;;;;;;13.90;7.20;;;;;;;13.33;100.00;95566.72;10197635;29;20039;-72
2021/09/30 17:12:51;;;;;;;14.25;8.55;;;;;;;13.34;100.00;95565.66;10196362;29;20031;-68
2021/09/30 17:17:53;;;;;;;15.98;8.20;;;;;;;13.24;100.00;95562.91;10196053;29;20055;-68
2021/09/30 17:22:53;;;;;;;20.92;8.10;;;;;;;13.15;100.00;95558.06;10197149;29;20094;-67
2021/09/30 17:27:53;;;;;;;15.40;8.90;;;;;;;13.13;100.00;95568.31;10212600;28;20079;-69
2021/09/30 17:32:56;;;;;;;15.40;8.43;;;;;;;13.03;100.00;95567.50;10198555;28;20275;-68
2021/09/30 17:37:56;;;;;;;17.67;7.65;;;;;;;13.07;100.00;95564.00;10211755;29;20275;-70
2021/09/30 17:42:57;;;;;;;18.27;7.68;;;;;;;13.16;100.00;95581.28;10201752;29;20682;-69
2021/09/30 17:47:57;;;;;;;13.55;8.00;;;;;;;13.10;100.00;95576.13;10215742;28;20039;-68
2021/09/30 17:52:58;;;;;;;13.20;7.95;;;;;;;13.22;100.00;95589.38;10194559;29;20040;-70
2021/09/30 17:57:58;;;;;;;13.32;7.25;;;;;;;13.26;100.00;95593.19;10177920;29;20023;-67
2021/09/30 18:02:59;;;;;;;11.98;7.05;;;;;;;13.28;100.00;95601.81;10195526;29;20043;-72
2021/09/30 18:07:59;;;;;;;9.70;6.80;;;;;;;13.14;100.00;95598.81;10190575;29;20673;-73
2021/09/30 18:13:00;;;;;;;15.75;7.22;;;;;;;13.09;100.00;95601.50;10195359;29;20290;-71
2021/09/30 18:18:00;;;;;;;11.35;7.25;;;;;;;13.20;100.00;95605.84;10195784;29;20135;-72
2021/09/30 18:23:00;;;;;;;12.27;7.83;;;;;;;13.22;100.00;95608.28;10194608;29;20039;-68
2021/09/30 18:28:01;;;;;;;15.27;7.27;;;;;;;13.27;100.00;95609.09;10182835;29;20658;-69
2021/09/30 18:33:02;;;;;;;10.47;6.83;;;;;;;13.21;100.00;95604.75;10195700;29;20630;-70
2021/09/30 18:38:04;;;;;;;13.95;8.07;;;;;;;13.14;100.00;95596.94;10203149;29;20284;-69
2021/09/30 18:43:09;;;;;;;9.50;5.93;;;;;;;13.03;100.00;95603.38;10200694;29;20028;-72
2021/09/30 18:48:10;;;;;;;13.48;7.55;;;;;;;13.12;100.00;95609.88;10201842;29;20451;-72
2021/09/30 18:53:11;;;;;;;13.50;7.68;;;;;;;13.20;100.00;95610.44;10199729;28;20031;-69
2021/09/30 18:58:11;;;;;;;18.15;8.15;;;;;;;13.20;100.00;95616.66;10201071;29;20021;-68
2021/09/30 19:03:12;;;;;;;11.23;6.75;;;;;;;13.13;100.00;95624.19;10185429;29;20035;-73
2021/09/30 19:08:15;;;;;;;11.30;7.83;;;;;;;13.14;100.00;95615.00;10198013;28;20556;-75
2021/09/30 19:13:16;;;;;;;15.35;8.07;;;;;;;13.11;100.00;95620.94;10209376;29;20287;-72
2021/09/30 19:18:20;;;;;;;12.48;8.70;;;;;;;13.11;100.00;95623.66;10195112;29;20102;-73
2021/09/30 19:23:21;;;;;;;14.93;8.23;;;;;;;13.12;100.00;95627.97;10187853;29;20039;-72
2021/09/30 19:28:22;;;;;;;14.63;8.45;;;;;;;13.08;100.00;95632.28;10188982;29;20507;-73
2021/09/30 19:33:24;;;;;;;12.00;6.63;;;;;;;13.13;100.00;95618.78;10166154;29;20027;-69
2021/09/30 19:38:24;;;;;;;11.10;5.97;;;;;;;13.12;100.00;95636.88;10161462;29;20063;-71
2021/09/30 19:43:26;;;;;;;12.75;6.85;;;;;;;13.06;100.00;95629.03;10165499;29;20529;-71
2021/09/30 19:48:26;;;;;;;15.02;6.22;;;;;;;12.97;100.00;95637.63;10183517;29;20516;-67
2021/09/30 19:53:27;;;;;;;11.57;6.05;;;;;;;12.94;100.00;95635.47;10174265;29;20082;-72
2021/09/30 19:58:27;;;;;;;12.07;7.20;;;;;;;12.83;100.00;95629.22;10161131;29;20035;-68
2021/09/30 20:03:28;;;;;;;13.30;7.65;;;;;;;12.83;100.00;95629.22;10162254;29;20032;-71
2021/09/30 20:08:30;;;;;;;12.30;6.75;;;;;;;12.81;100.00;95631.41;10184964;29;20452;-71
2021/09/30 20:13:31;;;;;;;16.27;7.65;;;;;;;12.82;100.00;95627.63;10215369;28;20494;-70
2021/09/30 20:18:32;;;;;;;12.43;6.35;;;;;;;12.78;100.00;95629.25;10200486;29;20050;-69
2021/09/30 20:23:33;;;;;;;14.27;7.38;;;;;;;12.64;100.00;95623.53;10183690;29;20041;-69
2021/09/30 20:28:35;;;;;;;14.55;7.55;;;;;;;12.51;100.00;95624.00;10200403;29;20525;-70
2021/09/30 20:33:35;;;;;;;15.38;7.38;;;;;;;12.42;100.00;95628.25;10199538;29;20039;-71
2021/09/30 20:38:36;;;;;;;13.93;8.55;;;;;;;12.29;100.00;95629.56;10198804;28;20126;-74
2021/09/30 20:43:36;;;;;;;15.07;8.15;;;;;;;12.22;100.00;95620.91;10214347;28;20513;-68
2021/09/30 20:48:37;;;;;;;12.50;8.45;;;;;;;12.13;100.00;95632.16;10214341;29;20034;-68
2021/09/30 20:53:37;;;;;;;15.98;8.35;;;;;;;12.08;100.00;95629.47;10214722;29;20114;-76
2021/09/30 20:58:38;;;;;;;16.27;9.60;;;;;;;12.01;100.00;95633.44;10214141;28;20023;-69
2021/09/30 21:03:39;;;;;;;12.88;7.65;;;;;;;11.77;100.00;95637.28;10213687;29;20153;-76
2021/09/30 21:08:39;;;;;;;15.88;8.73;;;;;;;11.62;100.00;95638.00;10214062;28;20558;-70
2021/09/30 21:13:40;;;;;;;17.58;9.70;;;;;;;11.53;100.00;95644.91;10182361;29;20035;-73
2021/09/30 21:18:40;;;;;;;16.42;10.13;;;;;;;11.43;100.00;95640.25;10197446;28;20425;-69
2021/09/30 21:23:41;;;;;;;15.20;9.27;;;;;;;11.42;100.00;95649.38;10213523;28;20525;-72
2021/09/30 21:28:42;;;;;;;18.33;9.70;;;;;;;11.27;100.00;95646.56;10197684;29;20028;-69
2021/09/30 21:33:42;;;;;;;16.02;10.15;;;;;;;11.29;100.00;95642.56;10196851;29;20387;-72
2021/09/30 21:38:43;;;;;;;20.55;10.07;;;;;;;11.15;100.00;95643.22;10213169;29;20115;-67
2021/09/30 21:43:44;;;;;;;15.15;9.70;;;;;;;11.17;100.00;95646.47;10197038;29;20418;-69
2021/09/30 21:48:45;;;;;;;16.63;10.38;;;;;;;11.13;100.00;95651.53;10196721;29;20431;-72
2021/09/30 21:53:45;;;;;;;14.25;9.10;;;;;;;11.06;100.00;95662.50;10212638;29;20039;-71
2021/09/30 21:58:46;;;;;;;14.50;8.30;;;;;;;11.08;100.00;95668.44;10213097;29;20020;-70
2021/09/30 22:03:46;;;;;;;12.52;7.57;;;;;;;10.87;100.00;95677.34;10195937;29;20027;-69
2021/09/30 22:08:47;;;;;;;11.98;7.03;;;;;;;10.81;100.00;95681.03;10200322;29;20044;-72
2021/09/30 22:13:47;;;;;;;13.48;7.60;;;;;;;10.74;100.00;95689.28;10220459;29;20514;-69
2021/09/30 22:18:48;;;;;;;13.88;7.25;;;;;;;10.87;100.00;95688.09;10205491;29;20099;-72
2021/09/30 22:23:48;;;;;;;11.63;6.63;;;;;;;11.00;100.00;95692.31;10220126;29;20664;-68
2021/09/30 22:28:49;;;;;;;11.30;6.95;;;;;;;11.19;100.00;95682.00;10203701;29;20023;-68
2021/09/30 22:33:49;;;;;;;15.18;7.10;;;;;;;11.21;100.00;95685.25;10205152;29;20028;-68
2021/09/30 22:38:50;;;;;;;10.65;6.43;;;;;;;11.26;100.00;95687.97;10205210;29;20473;-74
2021/09/30 22:43:50;;;;;;;16.10;7.18;;;;;;;11.20;100.00;95683.63;10204374;29;20027;-73
2021/09/30 22:48:51;;;;;;;11.98;6.95;;;;;;;11.14;100.00;95690.84;10203475;29;20122;-68
2021/09/30 22:53:51;;;;;;;11.15;6.82;;;;;;;11.16;100.00;95694.06;10218752;29;20031;-69
2021/09/30 22:58:52;;;;;;;16.13;6.20;;;;;;;11.24;100.00;95690.94;10202737;28;20058;-68
2021/09/30 23:03:52;;;;;;;11.75;6.53;;;;;;;11.25;100.00;95692.56;10202822;29;20094;-69
2021/09/30 23:08:53;;;;;;;14.05;7.07;;;;;;;11.08;100.00;95698.03;10218528;29;20087;-69
2021/09/30 23:13:53;;;;;;;12.05;7.40;;;;;;;11.21;100.00;95691.44;10202074;29;20028;-68
2021/09/30 23:18:54;;;;;;;11.65;6.55;;;;;;;11.21;100.00;95688.75;10201658;29;20047;-69
2021/09/30 23:23:54;;;;;;;16.03;7.43;;;;;;;11.16;100.00;95687.88;10218077;29;20040;-71
2021/09/30 23:28:55;;;;;;;18.75;8.15;;;;;;;10.93;100.00;95689.81;10217548;29;20292;-74
2021/09/30 23:33:55;;;;;;;12.27;7.10;;;;;;;10.93;100.00;95695.97;10201333;29;20062;-72
2021/09/30 23:38:56;;;;;;;14.00;7.97;;;;;;;10.78;100.00;95696.59;10201538;29;20300;-68
2021/09/30 23:43:56;;;;;;;20.10;9.10;;;;;;;10.64;100.00;95692.66;10201971;29;20086;-71
2021/09/30 23:48:56;;;;;;;16.73;8.55;;;;;;;10.60;100.00;95686.16;10216424;29;20126;-67
2021/09/30 23:53:57;;;;;;;15.23;8.68;;;;;;;10.59;100.00;95684.53;10217155;29;20035;-72
2021/09/30 23:58:57;;;;;;;14.50;7.53;;;;;;;10.62;100.00;95681.38;10216475;29;20114;-73
